Moss Bluff, Texas
Current Conditions -  °F | °C
As of 12:35 PM on Saturday 25 Oct 2014 (Local Time) from KBMT Reporting Station
Clear Clear  
Wind Chill: 78°   Ceiling: Unl
Heat Index: 79°   Visibility: 10mi
Dew Point: 53°   Wind: 0mph
Humidity: 41%   Direction: NA
Pressure: 30.16"   Gusts: NA
Location:  30.0821°N, 94.7401°W
Report Text: KBMT 251735Z AUTO 00000KT 10SM CLR 26/12 A3016 RMK AO2 T02580116
Loading
Personal Weather Stations






























Interactive Weather Map
Tropical Storm Tracking
New forecast layout! Learn more

10-Day Weather Forecast

Advertisements
Track Severe Weather on mobile